sensor_id;sensor_type;location;lat;lon;timestamp;P1;durP1;ratioP1;P2;durP2;ratioP2
58091;SDS011;43896;48.178;11.578;2022-08-19T00:00:32;4.97;;;2.92;;
58091;SDS011;43896;48.178;11.578;2022-08-19T00:02:57;6.05;;;2.85;;
58091;SDS011;43896;48.178;11.578;2022-08-19T00:05:33;5.68;;;2.70;;
58091;SDS011;43896;48.178;11.578;2022-08-19T00:07:59;4.93;;;2.90;;
58091;SDS011;43896;48.178;11.578;2022-08-19T00:10:33;5.22;;;3.00;;
58091;SDS011;43896;48.178;11.578;2022-08-19T00:13:01;4.80;;;2.80;;
58091;SDS011;43896;48.178;11.578;2022-08-19T00:15:33;5.32;;;3.30;;
58091;SDS011;43896;48.178;11.578;2022-08-19T00:18:11;5.85;;;3.30;;
58091;SDS011;43896;48.178;11.578;2022-08-19T00:24:31;5.18;;;3.50;;
58091;SDS011;43896;48.178;11.578;2022-08-19T00:27:12;5.65;;;3.55;;
58091;SDS011;43896;48.178;11.578;2022-08-19T00:29:59;6.68;;;3.97;;
58091;SDS011;43896;48.178;11.578;2022-08-19T00:32:33;5.45;;;3.67;;
58091;SDS011;43896;48.178;11.578;2022-08-19T00:35:05;5.57;;;3.90;;
58091;SDS011;43896;48.178;11.578;2022-08-19T00:40:00;5.75;;;3.97;;
58091;SDS011;43896;48.178;11.578;2022-08-19T00:45:17;5.90;;;4.00;;
58091;SDS011;43896;48.178;11.578;2022-08-19T00:47:57;7.75;;;5.03;;
58091;SDS011;43896;48.178;11.578;2022-08-19T00:50:28;6.30;;;4.50;;
58091;SDS011;43896;48.178;11.578;2022-08-19T00:53:02;7.40;;;4.75;;
58091;SDS011;43896;48.178;11.578;2022-08-19T00:55:49;7.20;;;4.57;;
58091;SDS011;43896;48.178;11.578;2022-08-19T00:58:22;6.63;;;4.80;;
58091;SDS011;43896;48.178;11.578;2022-08-19T01:01:04;7.07;;;5.03;;
58091;SDS011;43896;48.178;11.578;2022-08-19T01:03:38;6.93;;;4.80;;
58091;SDS011;43896;48.178;11.578;2022-08-19T01:06:06;7.13;;;5.07;;
58091;SDS011;43896;48.178;11.578;2022-08-19T01:08:33;7.15;;;4.93;;
58091;SDS011;43896;48.178;11.578;2022-08-19T01:11:01;8.00;;;5.22;;
58091;SDS011;43896;48.178;11.578;2022-08-19T01:13:34;8.13;;;5.25;;
58091;SDS011;43896;48.178;11.578;2022-08-19T01:16:02;7.30;;;5.15;;
58091;SDS011;43896;48.178;11.578;2022-08-19T01:18:35;8.38;;;5.47;;
58091;SDS011;43896;48.178;11.578;2022-08-19T01:21:11;8.75;;;5.63;;
58091;SDS011;43896;48.178;11.578;2022-08-19T01:26:40;9.25;;;6.30;;
58091;SDS011;43896;48.178;11.578;2022-08-19T01:29:21;9.57;;;6.05;;
58091;SDS011;43896;48.178;11.578;2022-08-19T01:31:54;8.82;;;6.30;;
58091;SDS011;43896;48.178;11.578;2022-08-19T01:34:19;8.30;;;6.18;;
58091;SDS011;43896;48.178;11.578;2022-08-19T01:36:51;10.45;;;6.45;;
58091;SDS011;43896;48.178;11.578;2022-08-19T01:39:21;9.55;;;6.63;;
58091;SDS011;43896;48.178;11.578;2022-08-19T01:41:54;8.15;;;6.20;;
58091;SDS011;43896;48.178;11.578;2022-08-19T01:44:30;8.70;;;6.35;;
58091;SDS011;43896;48.178;11.578;2022-08-19T01:47:06;10.45;;;6.97;;
58091;SDS011;43896;48.178;11.578;2022-08-19T01:49:44;9.60;;;6.57;;
58091;SDS011;43896;48.178;11.578;2022-08-19T01:52:10;9.10;;;6.63;;
58091;SDS011;43896;48.178;11.578;2022-08-19T01:54:58;8.13;;;6.00;;
58091;SDS011;43896;48.178;11.578;2022-08-19T01:57:40;10.32;;;6.60;;
58091;SDS011;43896;48.178;11.578;2022-08-19T02:00:24;9.93;;;6.68;;
58091;SDS011;43896;48.178;11.578;2022-08-19T02:03:11;8.65;;;6.40;;
58091;SDS011;43896;48.178;11.578;2022-08-19T02:05:42;9.07;;;6.50;;
58091;SDS011;43896;48.178;11.578;2022-08-19T02:08:23;8.80;;;6.55;;
58091;SDS011;43896;48.178;11.578;2022-08-19T02:10:54;8.40;;;5.80;;
58091;SDS011;43896;48.178;11.578;2022-08-19T02:13:26;8.50;;;6.50;;
58091;SDS011;43896;48.178;11.578;2022-08-19T02:16:05;8.75;;;5.97;;
58091;SDS011;43896;48.178;11.578;2022-08-19T02:18:30;7.90;;;5.75;;
58091;SDS011;43896;48.178;11.578;2022-08-19T02:21:01;7.53;;;5.65;;
58091;SDS011;43896;48.178;11.578;2022-08-19T02:23:37;9.40;;;5.60;;
58091;SDS011;43896;48.178;11.578;2022-08-19T02:26:05;8.43;;;5.55;;
58091;SDS011;43896;48.178;11.578;2022-08-19T02:28:33;8.73;;;5.80;;
58091;SDS011;43896;48.178;11.578;2022-08-19T02:31:14;8.00;;;5.68;;
58091;SDS011;43896;48.178;11.578;2022-08-19T02:33:45;7.60;;;5.32;;
58091;SDS011;43896;48.178;11.578;2022-08-19T02:36:19;8.52;;;5.53;;
58091;SDS011;43896;48.178;11.578;2022-08-19T02:38:58;8.67;;;5.27;;
58091;SDS011;43896;48.178;11.578;2022-08-19T02:41:34;7.32;;;5.07;;
58091;SDS011;43896;48.178;11.578;2022-08-19T02:44:03;7.25;;;5.00;;
58091;SDS011;43896;48.178;11.578;2022-08-19T02:46:33;6.80;;;4.93;;
58091;SDS011;43896;48.178;11.578;2022-08-19T02:49:05;7.25;;;4.72;;
58091;SDS011;43896;48.178;11.578;2022-08-19T02:51:42;8.77;;;5.22;;
58091;SDS011;43896;48.178;11.578;2022-08-19T02:54:25;6.85;;;4.72;;
58091;SDS011;43896;48.178;11.578;2022-08-19T02:56:59;7.38;;;4.70;;
58091;SDS011;43896;48.178;11.578;2022-08-19T02:59:32;8.40;;;4.63;;
58091;SDS011;43896;48.178;11.578;2022-08-19T03:02:00;6.93;;;4.72;;
58091;SDS011;43896;48.178;11.578;2022-08-19T03:08:11;7.13;;;4.68;;
58091;SDS011;43896;48.178;11.578;2022-08-19T03:10:46;10.75;;;5.15;;
58091;SDS011;43896;48.178;11.578;2022-08-19T03:13:19;8.48;;;4.88;;
58091;SDS011;43896;48.178;11.578;2022-08-19T03:15:56;6.60;;;4.68;;
58091;SDS011;43896;48.178;11.578;2022-08-19T03:18:34;7.15;;;4.70;;
58091;SDS011;43896;48.178;11.578;2022-08-19T03:21:14;6.78;;;4.32;;
58091;SDS011;43896;48.178;11.578;2022-08-19T03:23:49;6.68;;;4.32;;
58091;SDS011;43896;48.178;11.578;2022-08-19T03:26:27;7.78;;;4.90;;
58091;SDS011;43896;48.178;11.578;2022-08-19T03:29:02;6.47;;;4.50;;
58091;SDS011;43896;48.178;11.578;2022-08-19T03:31:51;6.68;;;4.70;;
58091;SDS011;43896;48.178;11.578;2022-08-19T03:34:26;7.55;;;4.97;;
58091;SDS011;43896;48.178;11.578;2022-08-19T03:36:58;7.28;;;4.80;;
58091;SDS011;43896;48.178;11.578;2022-08-19T03:39:42;6.68;;;4.65;;
58091;SDS011;43896;48.178;11.578;2022-08-19T03:42:36;7.43;;;5.18;;
58091;SDS011;43896;48.178;11.578;2022-08-19T03:45:10;6.20;;;4.47;;
58091;SDS011;43896;48.178;11.578;2022-08-19T03:47:52;6.25;;;4.40;;
58091;SDS011;43896;48.178;11.578;2022-08-19T03:50:46;7.85;;;4.80;;
58091;SDS011;43896;48.178;11.578;2022-08-19T03:53:27;7.65;;;5.00;;
58091;SDS011;43896;48.178;11.578;2022-08-19T03:56:03;8.65;;;5.45;;
58091;SDS011;43896;48.178;11.578;2022-08-19T03:58:46;8.77;;;5.05;;
58091;SDS011;43896;48.178;11.578;2022-08-19T04:01:35;7.10;;;4.80;;
58091;SDS011;43896;48.178;11.578;2022-08-19T04:04:27;7.93;;;4.97;;
58091;SDS011;43896;48.178;11.578;2022-08-19T04:06:59;8.48;;;5.15;;
58091;SDS011;43896;48.178;11.578;2022-08-19T04:09:33;8.85;;;5.35;;
58091;SDS011;43896;48.178;11.578;2022-08-19T04:12:27;8.93;;;5.63;;
58091;SDS011;43896;48.178;11.578;2022-08-19T04:15:17;7.88;;;5.10;;
58091;SDS011;43896;48.178;11.578;2022-08-19T04:18:10;9.10;;;6.50;;
58091;SDS011;43896;48.178;11.578;2022-08-19T04:21:02;8.02;;;5.63;;
58091;SDS011;43896;48.178;11.578;2022-08-19T04:24:07;8.07;;;5.38;;
58091;SDS011;43896;48.178;11.578;2022-08-19T04:29:45;8.52;;;6.10;;
58091;SDS011;43896;48.178;11.578;2022-08-19T04:32:44;9.38;;;5.63;;
58091;SDS011;43896;48.178;11.578;2022-08-19T04:35:55;8.23;;;5.97;;
58091;SDS011;43896;48.178;11.578;2022-08-19T04:38:33;8.23;;;5.57;;
58091;SDS011;43896;48.178;11.578;2022-08-19T04:41:25;9.35;;;6.18;;
58091;SDS011;43896;48.178;11.578;2022-08-19T04:44:17;7.57;;;5.38;;
58091;SDS011;43896;48.178;11.578;2022-08-19T04:47:26;9.50;;;5.85;;
58091;SDS011;43896;48.178;11.578;2022-08-19T04:50:08;8.20;;;6.10;;
58091;SDS011;43896;48.178;11.578;2022-08-19T04:53:10;10.30;;;6.45;;
58091;SDS011;43896;48.178;11.578;2022-08-19T04:56:23;11.13;;;6.22;;
58091;SDS011;43896;48.178;11.578;2022-08-19T05:02:19;9.43;;;6.50;;
58091;SDS011;43896;48.178;11.578;2022-08-19T05:04:44;9.73;;;6.53;;
58091;SDS011;43896;48.178;11.578;2022-08-19T05:07:10;8.70;;;5.88;;
58091;SDS011;43896;48.178;11.578;2022-08-19T05:09:35;9.80;;;6.13;;
58091;SDS011;43896;48.178;11.578;2022-08-19T05:12:01;8.73;;;5.90;;
58091;SDS011;43896;48.178;11.578;2022-08-19T05:14:26;8.82;;;6.35;;
58091;SDS011;43896;48.178;11.578;2022-08-19T05:16:52;9.43;;;5.97;;
58091;SDS011;43896;48.178;11.578;2022-08-19T05:19:17;8.90;;;6.22;;
58091;SDS011;43896;48.178;11.578;2022-08-19T05:22:01;7.88;;;5.55;;
58091;SDS011;43896;48.178;11.578;2022-08-19T05:24:45;8.60;;;5.85;;
58091;SDS011;43896;48.178;11.578;2022-08-19T05:27:10;9.80;;;7.25;;
58091;SDS011;43896;48.178;11.578;2022-08-19T05:29:36;10.07;;;6.20;;
58091;SDS011;43896;48.178;11.578;2022-08-19T05:32:02;9.40;;;6.00;;
58091;SDS011;43896;48.178;11.578;2022-08-19T05:34:30;8.85;;;6.18;;
58091;SDS011;43896;48.178;11.578;2022-08-19T05:36:58;8.45;;;5.80;;
58091;SDS011;43896;48.178;11.578;2022-08-19T05:39:26;9.07;;;6.70;;
58091;SDS011;43896;48.178;11.578;2022-08-19T05:41:58;9.18;;;6.25;;
58091;SDS011;43896;48.178;11.578;2022-08-19T05:44:26;11.00;;;6.68;;
58091;SDS011;43896;48.178;11.578;2022-08-19T05:46:56;8.98;;;6.55;;
58091;SDS011;43896;48.178;11.578;2022-08-19T05:49:23;9.05;;;6.45;;
58091;SDS011;43896;48.178;11.578;2022-08-19T05:51:50;10.43;;;7.20;;
58091;SDS011;43896;48.178;11.578;2022-08-19T05:54:16;8.98;;;6.68;;
58091;SDS011;43896;48.178;11.578;2022-08-19T05:56:42;10.68;;;7.13;;
58091;SDS011;43896;48.178;11.578;2022-08-19T05:59:09;9.70;;;7.10;;
58091;SDS011;43896;48.178;11.578;2022-08-19T06:01:39;9.55;;;6.90;;
58091;SDS011;43896;48.178;11.578;2022-08-19T06:04:06;9.82;;;6.50;;
58091;SDS011;43896;48.178;11.578;2022-08-19T06:06:32;9.23;;;6.97;;
58091;SDS011;43896;48.178;11.578;2022-08-19T06:08:59;10.10;;;6.68;;
58091;SDS011;43896;48.178;11.578;2022-08-19T06:11:33;10.10;;;6.45;;
58091;SDS011;43896;48.178;11.578;2022-08-19T06:14:04;11.85;;;7.45;;
58091;SDS011;43896;48.178;11.578;2022-08-19T06:16:34;9.80;;;7.10;;
58091;SDS011;43896;48.178;11.578;2022-08-19T06:19:02;9.68;;;7.00;;
58091;SDS011;43896;48.178;11.578;2022-08-19T06:21:29;10.38;;;7.88;;
58091;SDS011;43896;48.178;11.578;2022-08-19T06:23:56;11.15;;;7.72;;
58091;SDS011;43896;48.178;11.578;2022-08-19T06:26:22;10.90;;;8.27;;
58091;SDS011;43896;48.178;11.578;2022-08-19T06:28:49;10.27;;;7.75;;
58091;SDS011;43896;48.178;11.578;2022-08-19T06:31:22;10.02;;;7.65;;
58091;SDS011;43896;48.178;11.578;2022-08-19T06:33:49;10.38;;;7.57;;
58091;SDS011;43896;48.178;11.578;2022-08-19T06:36:16;10.70;;;7.82;;
58091;SDS011;43896;48.178;11.578;2022-08-19T06:38:45;9.65;;;7.43;;
58091;SDS011;43896;48.178;11.578;2022-08-19T06:41:10;11.10;;;7.50;;
58091;SDS011;43896;48.178;11.578;2022-08-19T06:43:36;10.38;;;7.57;;
58091;SDS011;43896;48.178;11.578;2022-08-19T06:46:01;11.15;;;8.27;;
58091;SDS011;43896;48.178;11.578;2022-08-19T06:48:28;12.32;;;8.30;;
58091;SDS011;43896;48.178;11.578;2022-08-19T06:50:54;11.18;;;8.30;;
58091;SDS011;43896;48.178;11.578;2022-08-19T06:53:19;11.40;;;8.07;;
58091;SDS011;43896;48.178;11.578;2022-08-19T06:55:45;11.73;;;8.80;;
58091;SDS011;43896;48.178;11.578;2022-08-19T06:58:10;12.40;;;9.13;;
58091;SDS011;43896;48.178;11.578;2022-08-19T07:00:36;11.75;;;8.85;;
58091;SDS011;43896;48.178;11.578;2022-08-19T07:03:01;13.23;;;9.20;;
58091;SDS011;43896;48.178;11.578;2022-08-19T07:05:27;12.20;;;8.85;;
58091;SDS011;43896;48.178;11.578;2022-08-19T07:07:52;12.80;;;9.20;;
58091;SDS011;43896;48.178;11.578;2022-08-19T07:10:18;11.75;;;9.40;;
58091;SDS011;43896;48.178;11.578;2022-08-19T07:12:44;14.95;;;10.40;;
58091;SDS011;43896;48.178;11.578;2022-08-19T07:15:09;13.35;;;9.88;;
58091;SDS011;43896;48.178;11.578;2022-08-19T07:17:36;12.48;;;9.80;;
58091;SDS011;43896;48.178;11.578;2022-08-19T07:20:03;11.77;;;9.50;;
58091;SDS011;43896;48.178;11.578;2022-08-19T07:22:29;13.93;;;10.50;;
58091;SDS011;43896;48.178;11.578;2022-08-19T07:24:56;14.82;;;10.95;;
58091;SDS011;43896;48.178;11.578;2022-08-19T07:27:21;14.65;;;11.27;;
58091;SDS011;43896;48.178;11.578;2022-08-19T07:29:46;16.50;;;11.80;;
58091;SDS011;43896;48.178;11.578;2022-08-19T07:32:12;15.75;;;11.88;;
58091;SDS011;43896;48.178;11.578;2022-08-19T07:34:37;16.95;;;12.57;;
58091;SDS011;43896;48.178;11.578;2022-08-19T07:37:03;17.98;;;12.63;;
58091;SDS011;43896;48.178;11.578;2022-08-19T07:39:31;16.80;;;12.27;;
58091;SDS011;43896;48.178;11.578;2022-08-19T07:41:59;18.05;;;13.40;;
58091;SDS011;43896;48.178;11.578;2022-08-19T07:44:28;18.80;;;13.32;;
58091;SDS011;43896;48.178;11.578;2022-08-19T07:46:54;18.88;;;14.35;;
58091;SDS011;43896;48.178;11.578;2022-08-19T07:49:22;18.17;;;13.13;;
58091;SDS011;43896;48.178;11.578;2022-08-19T07:51:53;21.15;;;14.18;;
58091;SDS011;43896;48.178;11.578;2022-08-19T07:54:21;20.67;;;14.10;;
58091;SDS011;43896;48.178;11.578;2022-08-19T07:56:48;21.08;;;15.48;;
58091;SDS011;43896;48.178;11.578;2022-08-19T07:59:15;23.33;;;16.08;;
58091;SDS011;43896;48.178;11.578;2022-08-19T08:01:42;23.25;;;16.35;;
58091;SDS011;43896;48.178;11.578;2022-08-19T08:04:09;24.15;;;16.15;;
58091;SDS011;43896;48.178;11.578;2022-08-19T08:06:54;22.45;;;16.33;;
58091;SDS011;43896;48.178;11.578;2022-08-19T08:09:39;23.75;;;16.42;;
58091;SDS011;43896;48.178;11.578;2022-08-19T08:12:10;21.65;;;16.02;;
58091;SDS011;43896;48.178;11.578;2022-08-19T08:14:45;19.75;;;15.25;;
58091;SDS011;43896;48.178;11.578;2022-08-19T08:17:16;24.27;;;16.02;;
58091;SDS011;43896;48.178;11.578;2022-08-19T08:19:43;21.92;;;15.55;;
58091;SDS011;43896;48.178;11.578;2022-08-19T08:22:10;21.67;;;15.70;;
58091;SDS011;43896;48.178;11.578;2022-08-19T08:24:57;22.65;;;15.85;;
58091;SDS011;43896;48.178;11.578;2022-08-19T08:29:56;22.23;;;16.35;;
58091;SDS011;43896;48.178;11.578;2022-08-19T08:32:22;22.38;;;16.45;;
58091;SDS011;43896;48.178;11.578;2022-08-19T08:34:47;20.77;;;16.05;;
58091;SDS011;43896;48.178;11.578;2022-08-19T08:37:13;22.63;;;16.30;;
58091;SDS011;43896;48.178;11.578;2022-08-19T08:39:38;23.25;;;17.25;;
58091;SDS011;43896;48.178;11.578;2022-08-19T08:42:08;24.15;;;18.02;;
58091;SDS011;43896;48.178;11.578;2022-08-19T08:44:50;21.48;;;16.17;;
58091;SDS011;43896;48.178;11.578;2022-08-19T08:47:23;22.98;;;16.58;;
58091;SDS011;43896;48.178;11.578;2022-08-19T08:49:54;22.08;;;16.60;;
58091;SDS011;43896;48.178;11.578;2022-08-19T08:54:57;22.88;;;17.27;;
58091;SDS011;43896;48.178;11.578;2022-08-19T08:57:33;20.10;;;15.27;;
58091;SDS011;43896;48.178;11.578;2022-08-19T09:00:05;21.52;;;16.40;;
58091;SDS011;43896;48.178;11.578;2022-08-19T09:02:33;21.75;;;16.15;;
58091;SDS011;43896;48.178;11.578;2022-08-19T09:04:59;21.60;;;15.15;;
58091;SDS011;43896;48.178;11.578;2022-08-19T09:10:04;20.25;;;15.13;;
58091;SDS011;43896;48.178;11.578;2022-08-19T09:12:34;23.10;;;16.80;;
58091;SDS011;43896;48.178;11.578;2022-08-19T09:15:09;21.20;;;16.20;;
58091;SDS011;43896;48.178;11.578;2022-08-19T09:17:36;22.40;;;16.70;;
58091;SDS011;43896;48.178;11.578;2022-08-19T09:22:32;22.48;;;16.67;;
58091;SDS011;43896;48.178;11.578;2022-08-19T09:24:58;21.98;;;16.85;;
58091;SDS011;43896;48.178;11.578;2022-08-19T09:27:24;22.70;;;16.50;;
58091;SDS011;43896;48.178;11.578;2022-08-19T09:29:51;23.00;;;16.58;;
58091;SDS011;43896;48.178;11.578;2022-08-19T09:32:18;21.60;;;16.75;;
58091;SDS011;43896;48.178;11.578;2022-08-19T09:34:44;22.58;;;16.67;;
58091;SDS011;43896;48.178;11.578;2022-08-19T09:37:10;21.50;;;16.52;;
58091;SDS011;43896;48.178;11.578;2022-08-19T09:39:35;26.20;;;17.42;;
58091;SDS011;43896;48.178;11.578;2022-08-19T09:42:02;22.35;;;15.95;;
58091;SDS011;43896;48.178;11.578;2022-08-19T09:44:28;21.50;;;16.38;;
58091;SDS011;43896;48.178;11.578;2022-08-19T09:46:54;21.67;;;16.13;;
58091;SDS011;43896;48.178;11.578;2022-08-19T09:49:19;21.58;;;15.88;;
58091;SDS011;43896;48.178;11.578;2022-08-19T09:51:49;20.90;;;16.20;;
58091;SDS011;43896;48.178;11.578;2022-08-19T09:54:15;22.43;;;16.30;;
58091;SDS011;43896;48.178;11.578;2022-08-19T09:56:40;21.50;;;14.82;;
58091;SDS011;43896;48.178;11.578;2022-08-19T09:59:05;20.45;;;14.88;;
58091;SDS011;43896;48.178;11.578;2022-08-19T10:01:31;18.63;;;14.07;;
58091;SDS011;43896;48.178;11.578;2022-08-19T10:03:58;20.90;;;14.68;;
58091;SDS011;43896;48.178;11.578;2022-08-19T10:06:25;20.65;;;14.82;;
58091;SDS011;43896;48.178;11.578;2022-08-19T10:08:56;19.70;;;13.68;;
58091;SDS011;43896;48.178;11.578;2022-08-19T10:11:21;19.67;;;13.43;;
58091;SDS011;43896;48.178;11.578;2022-08-19T10:13:47;21.42;;;15.07;;
58091;SDS011;43896;48.178;11.578;2022-08-19T10:16:14;18.98;;;14.40;;
58091;SDS011;43896;48.178;11.578;2022-08-19T10:18:43;18.02;;;13.48;;
58091;SDS011;43896;48.178;11.578;2022-08-19T10:21:10;17.23;;;12.70;;
58091;SDS011;43896;48.178;11.578;2022-08-19T10:23:42;16.45;;;12.48;;
58091;SDS011;43896;48.178;11.578;2022-08-19T10:26:10;17.05;;;12.55;;
58091;SDS011;43896;48.178;11.578;2022-08-19T10:28:37;16.20;;;12.25;;
58091;SDS011;43896;48.178;11.578;2022-08-19T10:31:16;14.90;;;11.13;;
58091;SDS011;43896;48.178;11.578;2022-08-19T10:33:49;15.63;;;10.40;;
58091;SDS011;43896;48.178;11.578;2022-08-19T10:36:16;11.80;;;8.70;;
58091;SDS011;43896;48.178;11.578;2022-08-19T10:38:44;11.52;;;9.02;;
58091;SDS011;43896;48.178;11.578;2022-08-19T10:41:15;12.10;;;9.07;;
58091;SDS011;43896;48.178;11.578;2022-08-19T10:43:47;11.63;;;8.98;;
58091;SDS011;43896;48.178;11.578;2022-08-19T10:46:15;13.85;;;9.50;;
58091;SDS011;43896;48.178;11.578;2022-08-19T10:48:41;12.43;;;9.38;;
58091;SDS011;43896;48.178;11.578;2022-08-19T10:51:08;13.48;;;9.15;;
58091;SDS011;43896;48.178;11.578;2022-08-19T10:53:52;12.35;;;9.57;;
58091;SDS011;43896;48.178;11.578;2022-08-19T10:56:18;12.30;;;9.68;;
58091;SDS011;43896;48.178;11.578;2022-08-19T10:59:02;12.95;;;9.07;;
58091;SDS011;43896;48.178;11.578;2022-08-19T11:01:29;11.05;;;8.48;;
58091;SDS011;43896;48.178;11.578;2022-08-19T11:03:56;11.80;;;8.02;;
58091;SDS011;43896;48.178;11.578;2022-08-19T11:06:24;11.45;;;8.70;;
58091;SDS011;43896;48.178;11.578;2022-08-19T11:08:50;11.63;;;8.07;;
58091;SDS011;43896;48.178;11.578;2022-08-19T11:11:16;12.90;;;9.32;;
58091;SDS011;43896;48.178;11.578;2022-08-19T11:13:42;11.60;;;8.98;;
58091;SDS011;43896;48.178;11.578;2022-08-19T11:16:11;11.18;;;8.18;;
58091;SDS011;43896;48.178;11.578;2022-08-19T11:18:40;11.90;;;9.18;;
58091;SDS011;43896;48.178;11.578;2022-08-19T11:21:14;12.65;;;8.82;;
58091;SDS011;43896;48.178;11.578;2022-08-19T11:23:48;9.73;;;7.25;;
58091;SDS011;43896;48.178;11.578;2022-08-19T11:26:15;8.93;;;6.28;;
58091;SDS011;43896;48.178;11.578;2022-08-19T11:28:41;7.32;;;5.57;;
58091;SDS011;43896;48.178;11.578;2022-08-19T11:31:14;7.18;;;5.43;;
58091;SDS011;43896;48.178;11.578;2022-08-19T11:33:42;8.73;;;5.95;;
58091;SDS011;43896;48.178;11.578;2022-08-19T11:36:08;7.47;;;5.38;;
58091;SDS011;43896;48.178;11.578;2022-08-19T11:38:34;6.68;;;4.80;;
58091;SDS011;43896;48.178;11.578;2022-08-19T11:41:01;5.68;;;4.10;;
58091;SDS011;43896;48.178;11.578;2022-08-19T11:43:28;4.95;;;3.13;;
58091;SDS011;43896;48.178;11.578;2022-08-19T11:45:54;4.38;;;2.47;;
58091;SDS011;43896;48.178;11.578;2022-08-19T11:48:20;3.75;;;2.10;;
58091;SDS011;43896;48.178;11.578;2022-08-19T11:50:47;4.18;;;2.53;;
58091;SDS011;43896;48.178;11.578;2022-08-19T11:53:13;4.60;;;2.63;;
58091;SDS011;43896;48.178;11.578;2022-08-19T11:55:38;3.70;;;2.10;;
58091;SDS011;43896;48.178;11.578;2022-08-19T11:58:05;3.90;;;1.98;;
58091;SDS011;43896;48.178;11.578;2022-08-19T12:00:32;3.70;;;2.00;;
58091;SDS011;43896;48.178;11.578;2022-08-19T12:03:00;3.47;;;1.80;;
58091;SDS011;43896;48.178;11.578;2022-08-19T12:05:25;3.95;;;1.98;;
58091;SDS011;43896;48.178;11.578;2022-08-19T12:07:51;3.10;;;1.90;;
58091;SDS011;43896;48.178;11.578;2022-08-19T12:10:16;2.80;;;1.60;;
58091;SDS011;43896;48.178;11.578;2022-08-19T12:12:42;3.53;;;1.70;;
58091;SDS011;43896;48.178;11.578;2022-08-19T12:15:10;3.10;;;1.50;;
58091;SDS011;43896;48.178;11.578;2022-08-19T12:17:36;3.60;;;1.60;;
58091;SDS011;43896;48.178;11.578;2022-08-19T12:20:02;2.35;;;1.25;;
58091;SDS011;43896;48.178;11.578;2022-08-19T12:22:28;2.88;;;1.30;;
58091;SDS011;43896;48.178;11.578;2022-08-19T12:24:54;2.35;;;1.30;;
58091;SDS011;43896;48.178;11.578;2022-08-19T12:27:20;2.33;;;1.20;;
58091;SDS011;43896;48.178;11.578;2022-08-19T12:29:45;1.95;;;1.10;;
58091;SDS011;43896;48.178;11.578;2022-08-19T12:32:10;1.92;;;1.08;;
58091;SDS011;43896;48.178;11.578;2022-08-19T12:34:36;2.35;;;1.20;;
58091;SDS011;43896;48.178;11.578;2022-08-19T12:37:03;2.20;;;1.15;;
58091;SDS011;43896;48.178;11.578;2022-08-19T12:39:33;1.60;;;1.10;;
58091;SDS011;43896;48.178;11.578;2022-08-19T12:41:59;2.25;;;1.20;;
58091;SDS011;43896;48.178;11.578;2022-08-19T12:44:24;2.10;;;1.05;;
58091;SDS011;43896;48.178;11.578;2022-08-19T12:46:50;1.95;;;1.10;;
58091;SDS011;43896;48.178;11.578;2022-08-19T12:49:15;2.80;;;1.42;;
58091;SDS011;43896;48.178;11.578;2022-08-19T12:51:40;2.67;;;1.10;;
58091;SDS011;43896;48.178;11.578;2022-08-19T12:54:06;1.60;;;0.98;;
58091;SDS011;43896;48.178;11.578;2022-08-19T12:56:31;2.55;;;1.20;;
58091;SDS011;43896;48.178;11.578;2022-08-19T12:59:00;1.77;;;1.00;;
58091;SDS011;43896;48.178;11.578;2022-08-19T13:01:27;1.55;;;0.80;;
58091;SDS011;43896;48.178;11.578;2022-08-19T13:03:57;1.50;;;0.90;;
58091;SDS011;43896;48.178;11.578;2022-08-19T13:06:23;2.13;;;1.00;;
58091;SDS011;43896;48.178;11.578;2022-08-19T13:08:48;2.50;;;1.20;;
58091;SDS011;43896;48.178;11.578;2022-08-19T13:11:14;2.92;;;1.15;;
58091;SDS011;43896;48.178;11.578;2022-08-19T13:13:42;2.13;;;1.10;;
58091;SDS011;43896;48.178;11.578;2022-08-19T13:16:11;2.30;;;1.08;;
58091;SDS011;43896;48.178;11.578;2022-08-19T13:18:37;2.20;;;1.10;;
58091;SDS011;43896;48.178;11.578;2022-08-19T13:21:04;1.63;;;1.00;;
58091;SDS011;43896;48.178;11.578;2022-08-19T13:23:31;1.75;;;1.00;;
58091;SDS011;43896;48.178;11.578;2022-08-19T13:26:00;2.55;;;1.00;;
58091;SDS011;43896;48.178;11.578;2022-08-19T13:28:27;2.40;;;1.05;;
58091;SDS011;43896;48.178;11.578;2022-08-19T13:31:14;1.58;;;0.90;;
58091;SDS011;43896;48.178;11.578;2022-08-19T13:33:59;2.20;;;1.00;;
58091;SDS011;43896;48.178;11.578;2022-08-19T13:36:25;2.03;;;0.88;;
58091;SDS011;43896;48.178;11.578;2022-08-19T13:38:51;2.25;;;1.00;;
58091;SDS011;43896;48.178;11.578;2022-08-19T13:41:16;2.30;;;1.23;;
58091;SDS011;43896;48.178;11.578;2022-08-19T13:43:43;2.38;;;1.13;;
58091;SDS011;43896;48.178;11.578;2022-08-19T13:46:09;2.58;;;1.40;;
58091;SDS011;43896;48.178;11.578;2022-08-19T13:48:38;2.97;;;1.50;;
58091;SDS011;43896;48.178;11.578;2022-08-19T13:51:06;3.83;;;1.70;;
58091;SDS011;43896;48.178;11.578;2022-08-19T13:53:35;3.40;;;1.70;;
58091;SDS011;43896;48.178;11.578;2022-08-19T13:56:06;4.75;;;2.00;;
58091;SDS011;43896;48.178;11.578;2022-08-19T13:58:34;3.55;;;2.00;;
58091;SDS011;43896;48.178;11.578;2022-08-19T14:00:59;3.65;;;2.10;;
58091;SDS011;43896;48.178;11.578;2022-08-19T14:03:25;4.30;;;2.50;;
58091;SDS011;43896;48.178;11.578;2022-08-19T14:05:51;4.90;;;2.30;;
58091;SDS011;43896;48.178;11.578;2022-08-19T14:08:17;4.43;;;2.33;;
58091;SDS011;43896;48.178;11.578;2022-08-19T14:10:43;4.72;;;2.40;;
58091;SDS011;43896;48.178;11.578;2022-08-19T14:13:10;4.35;;;2.42;;
58091;SDS011;43896;48.178;11.578;2022-08-19T14:15:37;4.30;;;2.60;;
58091;SDS011;43896;48.178;11.578;2022-08-19T14:18:03;3.92;;;2.10;;
58091;SDS011;43896;48.178;11.578;2022-08-19T14:20:28;3.65;;;2.30;;
58091;SDS011;43896;48.178;11.578;2022-08-19T14:22:54;3.72;;;2.08;;
58091;SDS011;43896;48.178;11.578;2022-08-19T14:25:25;4.35;;;2.40;;
58091;SDS011;43896;48.178;11.578;2022-08-19T14:27:52;3.95;;;2.40;;
58091;SDS011;43896;48.178;11.578;2022-08-19T14:30:27;4.10;;;2.58;;
58091;SDS011;43896;48.178;11.578;2022-08-19T14:32:55;4.93;;;3.00;;
58091;SDS011;43896;48.178;11.578;2022-08-19T14:35:23;3.88;;;2.35;;
58091;SDS011;43896;48.178;11.578;2022-08-19T14:37:50;5.00;;;2.97;;
58091;SDS011;43896;48.178;11.578;2022-08-19T14:40:21;4.18;;;2.70;;
58091;SDS011;43896;48.178;11.578;2022-08-19T14:42:50;4.47;;;2.80;;
58091;SDS011;43896;48.178;11.578;2022-08-19T14:45:24;4.28;;;2.70;;
58091;SDS011;43896;48.178;11.578;2022-08-19T14:47:52;3.95;;;2.47;;
58091;SDS011;43896;48.178;11.578;2022-08-19T14:50:18;5.55;;;3.10;;
58091;SDS011;43896;48.178;11.578;2022-08-19T14:52:45;4.60;;;3.08;;
58091;SDS011;43896;48.178;11.578;2022-08-19T14:55:12;5.25;;;2.88;;
58091;SDS011;43896;48.178;11.578;2022-08-19T14:57:40;4.60;;;2.63;;
58091;SDS011;43896;48.178;11.578;2022-08-19T15:00:06;4.10;;;2.58;;
58091;SDS011;43896;48.178;11.578;2022-08-19T15:02:33;4.50;;;3.05;;
58091;SDS011;43896;48.178;11.578;2022-08-19T15:04:58;4.20;;;2.80;;
58091;SDS011;43896;48.178;11.578;2022-08-19T15:07:23;4.82;;;3.08;;
58091;SDS011;43896;48.178;11.578;2022-08-19T15:09:49;5.82;;;2.92;;
58091;SDS011;43896;48.178;11.578;2022-08-19T15:12:15;4.97;;;3.22;;
58091;SDS011;43896;48.178;11.578;2022-08-19T15:14:41;5.00;;;3.25;;
58091;SDS011;43896;48.178;11.578;2022-08-19T15:17:09;5.30;;;3.45;;
58091;SDS011;43896;48.178;11.578;2022-08-19T15:19:34;5.28;;;3.22;;